L' Equinox — 9HB2052 — position and weather

sailwx.info

Track history (hours):
 
Tides and Currents Weather Stations Pressure Air Temp Water Temp Dewpoint Dewpoint Depression Visibility Wind Speed Wind Dir Waves Ship Positions

L' Equinox

Last reported at 2018-Jul-18 06:09 UTC. Time now 2018-Jul-21 17:19 UTC.
Position N 36°59' E 025°19'.

Length 37 m; draft 2.3 m.

Type: Pleasure craft. MMSI: 248749000.

Date/timePositionNaut miles runAvg speedWind from/ knotsBaromVisibWave heightAir tempDewpointWater temp
2018-Jul-18 06:09N 36°59' E 025°19'320.9
2018-Jul-18 06:01N 37°02' E 025°18'815.1
2018-Jul-18 05:30N 37°09' E 025°15'2 3.2
2018-Jul-18 04:55N 37°07' E 025°14'0 0.0
2018-Jul-18 04:16N 37°07' E 025°14'0 0.0
2018-Jul-18 03:52N 37°07' E 025°14'0 0.0
2018-Jul-18 03:28N 37°07' E 025°14'0 0.0
2018-Jul-18 02:58N 37°07' E 025°14'0 0.0
2018-Jul-18 02:28N 37°07' E 025°14'0 0.0
2018-Jul-18 01:58N 37°07' E 025°14'0 0.0
2018-Jul-18 01:25N 37°07' E 025°14'0 0.0
2018-Jul-18 00:58N 37°07' E 025°14'0 0.0
2018-Jul-18 00:28N 37°07' E 025°14'0 0.0
2018-Jul-17 23:43N 37°07' E 025°14'0 0.0
2018-Jul-17 23:25N 37°07' E 025°14'0 0.0
2018-Jul-17 23:01N 37°07' E 025°14'0 0.0
2018-Jul-17 22:29N 37°07' E 025°14'0 0.0
2018-Jul-17 21:44N 37°07' E 025°14'0 0.0
2018-Jul-17 21:23N 37°07' E 025°14'0 0.0
2018-Jul-17 20:56N 37°07' E 025°14'0 0.0
2018-Jul-17 20:29N 37°07' E 025°14'0 0.0
2018-Jul-17 19:59N 37°07' E 025°14'0 0.0
2018-Jul-17 19:20N 37°07' E 025°14'0 0.0
2018-Jul-17 18:59N 37°07' E 025°14'0 0.0
2018-Jul-17 17:47N 37°07' E 025°14'0 0.0
2018-Jul-17 17:26N 37°07' E 025°14'0 0.0
2018-Jul-17 16:41N 37°07' E 025°14'0 0.0
2018-Jul-17 16:29N 37°07' E 025°14'0 0.0
2018-Jul-17 15:56N 37°07' E 025°14'0 0.0
2018-Jul-17 15:29N 37°07' E 025°14'0 0.0
2018-Jul-17 14:53N 37°07' E 025°14'0 0.0
2018-Jul-17 14:29N 37°07' E 025°14'0 0.0
2018-Jul-17 13:59N 37°07' E 025°14'0 0.0
2018-Jul-17 13:17N 37°07' E 025°14'0 0.0
2018-Jul-17 12:59N 37°07' E 025°14'0 0.0
2018-Jul-17 12:26N 37°07' E 025°14'0 0.0
2018-Jul-17 11:59N 37°07' E 025°14'0 0.0
2018-Jul-17 11:20N 37°07' E 025°14'0 0.0
2018-Jul-17 10:41N 37°07' E 025°14'0 0.0
2018-Jul-17 10:29N 37°07' E 025°14'0 0.0
2018-Jul-17 09:53N 37°07' E 025°14'0 0.0
2018-Jul-17 09:29N 37°07' E 025°14'0 0.0
2018-Jul-17 08:59N 37°07' E 025°14'0 0.0
2018-Jul-17 08:23N 37°07' E 025°14'0 0.0
2018-Jul-17 07:47N 37°07' E 025°14'0 0.0
2018-Jul-17 07:30N 37°07' E 025°14'0 0.6
2018-Jul-17 07:00N 37°08' E 025°14'510.5
2018-Jul-17 06:31N 37°13' E 025°15'1121.0
2018-Jul-17 06:00N 37°23' E 025°17'5 8.5
2018-Jul-17 05:28N 37°27' E 025°20'0 0.0
2018-Jul-17 03:52N 37°27' E 025°20'0 0.0
2018-Jul-17 03:28N 37°27' E 025°20'0 0.0
2018-Jul-17 02:58N 37°27' E 025°20'0 0.0
2018-Jul-17 01:28N 37°27' E 025°20'0 0.0
2018-Jul-17 00:16N 37°27' E 025°20'0 0.0
2018-Jul-16 23:25N 37°27' E 025°20'0 0.0
2018-Jul-16 16:44N 37°27' E 025°20'0 1.2
2018-Jul-16 16:27N 37°27' E 025°19'0 0.5
2018-Jul-16 16:00N 37°27' E 025°19'4 7.5
2018-Jul-16 15:30N 37°27' E 025°15'3 0.4
2018-Jul-16 07:27N 37°24' E 025°13'1018.0
2018-Jul-16 06:54N 37°21' E 025°01'820.9
2018-Jul-16 06:30N 37°22' E 024°51'54 2.8
2018-Jul-15 11:14N 37°43' E 023°49'520.6
2018-Jul-15 11:00N 37°46' E 023°45'1020.2
2018-Jul-15 10:30N 37°56' E 023°39'1 1.2
2018-Jul-15 09:59N 37°56' E 023°39'0 0.0
2018-Jul-15 09:29N 37°56' E 023°39'0 0.0
2018-Jul-15 08:59N 37°56' E 023°39'0 0.0
2018-Jul-15 08:29N 37°56' E 023°39'0 0.0
2018-Jul-15 07:59N 37°56' E 023°39'0 0.0
2018-Jul-15 07:29N 37°56' E 023°39'0 0.0
2018-Jul-15 06:59N 37°56' E 023°39'0 0.0
2018-Jul-15 06:29N 37°56' E 023°39'0 0.0
2018-Jul-15 05:59N 37°56' E 023°39'0 0.0
2018-Jul-15 05:29N 37°56' E 023°39'0 0.0
2018-Jul-15 04:56N 37°56' E 023°39'0 0.0
2018-Jul-15 04:29N 37°56' E 023°39'0 0.0
2018-Jul-15 03:59N 37°56' E 023°39'0 0.0
2018-Jul-15 03:29N 37°56' E 023°39'0 0.0
2018-Jul-15 02:59N 37°56' E 023°39'0 0.0
2018-Jul-15 02:29N 37°56' E 023°39'0 0.0
2018-Jul-15 01:59N 37°56' E 023°39'0 0.0
2018-Jul-15 01:29N 37°56' E 023°39'0 0.0
2018-Jul-15 00:59N 37°56' E 023°39'0 0.0
2018-Jul-15 00:30N 37°56' E 023°39'0 0.0
2018-Jul-15 00:00N 37°56' E 023°39'0 0.0
2018-Jul-14 23:30N 37°56' E 023°39'0 0.0
2018-Jul-14 23:00N 37°56' E 023°39'0 0.0
2018-Jul-14 22:30N 37°56' E 023°39'0 0.0
2018-Jul-14 22:00N 37°56' E 023°39'0 0.0
2018-Jul-14 21:30N 37°56' E 023°39'0 0.0
2018-Jul-14 21:00N 37°56' E 023°39'0 0.0
2018-Jul-14 20:30N 37°56' E 023°39'0 0.0
2018-Jul-14 20:00N 37°56' E 023°39'0 0.0
2018-Jul-14 19:30N 37°56' E 023°39'0 0.0
2018-Jul-14 19:00N 37°56' E 023°39'0 0.0
2018-Jul-14 18:30N 37°56' E 023°39'0 0.0
2018-Jul-14 18:00N 37°56' E 023°39'0 0.0
2018-Jul-14 17:30N 37°56' E 023°39'0 0.0
2018-Jul-14 17:00N 37°56' E 023°39'0 0.0
2018-Jul-14 16:30N 37°56' E 023°39'0 0.0
2018-Jul-14 16:00N 37°56' E 023°39'0 0.0
2018-Jul-14 15:30N 37°56' E 023°39'0 0.0
2018-Jul-14 15:00N 37°56' E 023°39'0 0.0
2018-Jul-14 14:30N 37°56' E 023°39'0 0.0
2018-Jul-14 13:30N 37°56' E 023°39'0 0.0
2018-Jul-14 13:00N 37°56' E 023°39'0 0.0
2018-Jul-14 12:30N 37°56' E 023°39'0 0.0
2018-Jul-14 12:00N 37°56' E 023°39'0 0.0
2018-Jul-14 11:30N 37°56' E 023°39'0 0.0
2018-Jul-14 11:00N 37°56' E 023°39'0 0.0
2018-Jul-14 10:30N 37°56' E 023°39'0 0.0
2018-Jul-14 10:00N 37°56' E 023°39'0 0.0
2018-Jul-14 09:30N 37°56' E 023°39'0 0.0
2018-Jul-14 09:00N 37°56' E 023°39'2 3.6
2018-Jul-14 08:31N 37°54' E 023°39'1122.2
2018-Jul-14 08:01N 37°44' E 023°34'1421.7
2018-Jul-14 07:21N 37°32' E 023°25'2 0.1
2018-Jul-13 14:52N 37°30' E 023°27'1 0.2
2018-Jul-13 08:49N 37°30' E 023°29'  
2018-Jul-10 07:42N 36°59' E 025°17'421.8
2018-Jul-10 07:31N 37°03' E 025°18'611.1
2018-Jul-10 07:00N 37°08' E 025°14'1 1.2
2018-Jul-10 06:29N 37°09' E 025°14'0 0.0
2018-Jul-10 05:53N 37°09' E 025°14'0 0.0
2018-Jul-10 05:20N 37°09' E 025°14'0 0.0
2018-Jul-10 04:56N 37°09' E 025°14'0 0.0
2018-Jul-10 04:29N 37°09' E 025°14'0 0.0
2018-Jul-10 03:56N 37°09' E 025°14'0 0.0
2018-Jul-10 03:29N 37°09' E 025°14'0 0.0
2018-Jul-10 02:59N 37°09' E 025°14'0 0.0
2018-Jul-10 02:29N 37°09' E 025°14'0 0.0
2018-Jul-10 01:56N 37°09' E 025°14'0 0.0
2018-Jul-10 01:14N 37°09' E 025°14'0 0.0
2018-Jul-10 00:56N 37°09' E 025°14'0 0.0
2018-Jul-10 00:26N 37°09' E 025°14'0 0.0
2018-Jul-09 23:59N 37°09' E 025°14'0 0.0
2018-Jul-09 23:26N 37°09' E 025°14'0 0.0
2018-Jul-09 22:50N 37°09' E 025°14'0 0.0
2018-Jul-09 22:20N 37°09' E 025°14'0 0.0
2018-Jul-09 21:50N 37°09' E 025°14'0 0.0
2018-Jul-09 21:23N 37°09' E 025°14'0 0.0
2018-Jul-09 20:11N 37°09' E 025°14'0 0.0
2018-Jul-09 19:59N 37°09' E 025°14'0 0.0
2018-Jul-09 19:23N 37°09' E 025°14'0 0.0
2018-Jul-09 18:56N 37°09' E 025°14'0 0.0
2018-Jul-09 18:14N 37°09' E 025°14'0 0.0
2018-Jul-09 17:53N 37°09' E 025°14'0 0.0
2018-Jul-09 17:26N 37°09' E 025°14'0 0.0
2018-Jul-09 16:47N 37°09' E 025°14'0 0.0
2018-Jul-09 16:23N 37°09' E 025°14'0 0.0
2018-Jul-09 15:53N 37°09' E 025°14'0 0.0
2018-Jul-09 15:26N 37°09' E 025°14'0 0.0
2018-Jul-09 14:59N 37°09' E 025°14'0 0.0
2018-Jul-09 14:29N 37°09' E 025°14'0 0.0
2018-Jul-09 13:59N 37°09' E 025°14'0 0.0
2018-Jul-09 13:29N 37°09' E 025°14'0 0.0
2018-Jul-09 12:59N 37°09' E 025°14'0 0.0
2018-Jul-09 12:23N 37°09' E 025°14'0 0.0
2018-Jul-09 11:59N 37°09' E 025°14'0 0.0
2018-Jul-09 11:29N 37°09' E 025°14'0 0.0
2018-Jul-09 10:38N 37°09' E 025°14'0 0.0
2018-Jul-09 10:29N 37°09' E 025°14'0 0.0
2018-Jul-09 09:59N 37°09' E 025°14'0 0.0
2018-Jul-09 08:59N 37°09' E 025°14'0 0.0
2018-Jul-09 08:20N 37°09' E 025°14'0 0.0
2018-Jul-09 07:53N 37°09' E 025°14'0 0.0
2018-Jul-09 07:30N 37°09' E 025°14'0 0.1
2018-Jul-09 07:00N 37°09' E 025°14'1 1.3
2018-Jul-09 06:30N 37°08' E 025°14'1020.9
2018-Jul-09 06:01N 37°18' E 025°16'917.7
2018-Jul-09 05:30N 37°27' E 025°19'0 0.6
2018-Jul-09 04:57N 37°27' E 025°20'0 0.0
2018-Jul-09 04:27N 37°27' E 025°20'0 0.0
2018-Jul-09 03:57N 37°27' E 025°20'0 0.0
2018-Jul-09 03:24N 37°27' E 025°20'0 0.0
2018-Jul-09 02:54N 37°27' E 025°20'0 0.0
2018-Jul-09 02:27N 37°27' E 025°20'0 0.0
2018-Jul-09 01:51N 37°27' E 025°20'0 0.0
2018-Jul-09 01:30N 37°27' E 025°20'0 0.0
2018-Jul-09 01:00N 37°27' E 025°20'0 0.0
2018-Jul-09 00:27N 37°27' E 025°20'0 0.0
2018-Jul-08 23:57N 37°27' E 025°20'0 0.0
2018-Jul-08 23:30N 37°27' E 025°20'0 0.0
2018-Jul-08 23:00N 37°27' E 025°20'0 0.0
2018-Jul-08 22:30N 37°27' E 025°20'0 0.0
2018-Jul-08 21:51N 37°27' E 025°20'0 0.0
2018-Jul-08 21:27N 37°27' E 025°20'0 0.0
2018-Jul-08 20:54N 37°27' E 025°20'0 0.0
2018-Jul-08 20:27N 37°27' E 025°20'0 0.0
2018-Jul-08 18:45N 37°27' E 025°20'0 0.0
2018-Jul-08 18:21N 37°27' E 025°20'0 0.0
2018-Jul-08 17:51N 37°27' E 025°20'0 0.0
2018-Jul-08 17:21N 37°27' E 025°20'0 0.0
2018-Jul-08 16:51N 37°27' E 025°20'0 0.0
2018-Jul-08 16:30N 37°27' E 025°20'0 0.6
2018-Jul-08 15:59N 37°27' E 025°19'0 0.3
2018-Jul-08 15:30N 37°27' E 025°19'612.2
2018-Jul-08 15:00N 37°22' E 025°16'2 3.3
2018-Jul-08 14:26N 37°23' E 025°14'0 0.0
2018-Jul-08 13:59N 37°23' E 025°14'0 0.0
2018-Jul-08 13:29N 37°23' E 025°14'0 0.0
2018-Jul-08 12:59N 37°23' E 025°14'0 0.0
2018-Jul-08 12:26N 37°23' E 025°14'0 0.0
2018-Jul-08 11:56N 37°23' E 025°14'0 0.0
2018-Jul-08 11:26N 37°23' E 025°14'0 0.0
2018-Jul-08 10:50N 37°23' E 025°14'0 0.0
2018-Jul-08 10:29N 37°23' E 025°14'0 0.0
2018-Jul-08 10:00N 37°23' E 025°14'5 9.3
2018-Jul-08 09:30N 37°21' E 025°09'1121.1
2018-Jul-08 09:00N 37°21' E 024°56'  
Track history (hours):
 
Tides and Currents Weather Stations Pressure Air Temp Water Temp Dewpoint Dewpoint Depression Visibility Wind Speed Wind Dir Waves Ship Positions

L' Equinox

Last reported at 2018-Jul-18 06:09 UTC. Time now 2018-Jul-21 17:19 UTC.
Position N 36°59' E 025°19'.

Length 37 m; draft 2.3 m.

Type: Pleasure craft. MMSI: 248749000.

Date/timePositionNaut miles runAvg speedWind from/ knotsBaromVisibWave heightAir tempDewpointWater temp
2018-Jul-18 06:09N 36°59' E 025°19'320.9
2018-Jul-18 06:01N 37°02' E 025°18'815.1
2018-Jul-18 05:30N 37°09' E 025°15'2 3.2
2018-Jul-18 04:55N 37°07' E 025°14'0 0.0
2018-Jul-18 04:16N 37°07' E 025°14'0 0.0
2018-Jul-18 03:52N 37°07' E 025°14'0 0.0
2018-Jul-18 03:28N 37°07' E 025°14'0 0.0
2018-Jul-18 02:58N 37°07' E 025°14'0 0.0
2018-Jul-18 02:28N 37°07' E 025°14'0 0.0
2018-Jul-18 01:58N 37°07' E 025°14'0 0.0
2018-Jul-18 01:25N 37°07' E 025°14'0 0.0
2018-Jul-18 00:58N 37°07' E 025°14'0 0.0
2018-Jul-18 00:28N 37°07' E 025°14'0 0.0
2018-Jul-17 23:43N 37°07' E 025°14'0 0.0
2018-Jul-17 23:25N 37°07' E 025°14'0 0.0
2018-Jul-17 23:01N 37°07' E 025°14'0 0.0
2018-Jul-17 22:29N 37°07' E 025°14'0 0.0
2018-Jul-17 21:44N 37°07' E 025°14'0 0.0
2018-Jul-17 21:23N 37°07' E 025°14'0 0.0
2018-Jul-17 20:56N 37°07' E 025°14'0 0.0
2018-Jul-17 20:29N 37°07' E 025°14'0 0.0
2018-Jul-17 19:59N 37°07' E 025°14'0 0.0
2018-Jul-17 19:20N 37°07' E 025°14'0 0.0
2018-Jul-17 18:59N 37°07' E 025°14'0 0.0
2018-Jul-17 17:47N 37°07' E 025°14'0 0.0
2018-Jul-17 17:26N 37°07' E 025°14'0 0.0
2018-Jul-17 16:41N 37°07' E 025°14'0 0.0
2018-Jul-17 16:29N 37°07' E 025°14'0 0.0
2018-Jul-17 15:56N 37°07' E 025°14'0 0.0
2018-Jul-17 15:29N 37°07' E 025°14'0 0.0
2018-Jul-17 14:53N 37°07' E 025°14'0 0.0
2018-Jul-17 14:29N 37°07' E 025°14'0 0.0
2018-Jul-17 13:59N 37°07' E 025°14'0 0.0
2018-Jul-17 13:17N 37°07' E 025°14'0 0.0
2018-Jul-17 12:59N 37°07' E 025°14'0 0.0
2018-Jul-17 12:26N 37°07' E 025°14'0 0.0
2018-Jul-17 11:59N 37°07' E 025°14'0 0.0
2018-Jul-17 11:20N 37°07' E 025°14'0 0.0
2018-Jul-17 10:41N 37°07' E 025°14'0 0.0
2018-Jul-17 10:29N 37°07' E 025°14'0 0.0
2018-Jul-17 09:53N 37°07' E 025°14'0 0.0
2018-Jul-17 09:29N 37°07' E 025°14'0 0.0
2018-Jul-17 08:59N 37°07' E 025°14'0 0.0
2018-Jul-17 08:23N 37°07' E 025°14'0 0.0
2018-Jul-17 07:47N 37°07' E 025°14'0 0.0
2018-Jul-17 07:30N 37°07' E 025°14'0 0.6
2018-Jul-17 07:00N 37°08' E 025°14'510.5
2018-Jul-17 06:31N 37°13' E 025°15'1121.0
2018-Jul-17 06:00N 37°23' E 025°17'5 8.5
2018-Jul-17 05:28N 37°27' E 025°20'0 0.0
2018-Jul-17 03:52N 37°27' E 025°20'0 0.0
2018-Jul-17 03:28N 37°27' E 025°20'0 0.0
2018-Jul-17 02:58N 37°27' E 025°20'0 0.0
2018-Jul-17 01:28N 37°27' E 025°20'0 0.0
2018-Jul-17 00:16N 37°27' E 025°20'0 0.0
2018-Jul-16 23:25N 37°27' E 025°20'0 0.0
2018-Jul-16 16:44N 37°27' E 025°20'0 1.2
2018-Jul-16 16:27N 37°27' E 025°19'0 0.5
2018-Jul-16 16:00N 37°27' E 025°19'4 7.5
2018-Jul-16 15:30N 37°27' E 025°15'3 0.4
2018-Jul-16 07:27N 37°24' E 025°13'1018.0
2018-Jul-16 06:54N 37°21' E 025°01'820.9
2018-Jul-16 06:30N 37°22' E 024°51'54 2.8
2018-Jul-15 11:14N 37°43' E 023°49'520.6
2018-Jul-15 11:00N 37°46' E 023°45'1020.2
2018-Jul-15 10:30N 37°56' E 023°39'1 1.2
2018-Jul-15 09:59N 37°56' E 023°39'0 0.0
2018-Jul-15 09:29N 37°56' E 023°39'0 0.0
2018-Jul-15 08:59N 37°56' E 023°39'0 0.0
2018-Jul-15 08:29N 37°56' E 023°39'0 0.0
2018-Jul-15 07:59N 37°56' E 023°39'0 0.0
2018-Jul-15 07:29N 37°56' E 023°39'0 0.0
2018-Jul-15 06:59N 37°56' E 023°39'0 0.0
2018-Jul-15 06:29N 37°56' E 023°39'0 0.0
2018-Jul-15 05:59N 37°56' E 023°39'0 0.0
2018-Jul-15 05:29N 37°56' E 023°39'0 0.0
2018-Jul-15 04:56N 37°56' E 023°39'0 0.0
2018-Jul-15 04:29N 37°56' E 023°39'0 0.0
2018-Jul-15 03:59N 37°56' E 023°39'0 0.0
2018-Jul-15 03:29N 37°56' E 023°39'0 0.0
2018-Jul-15 02:59N 37°56' E 023°39'0 0.0
2018-Jul-15 02:29N 37°56' E 023°39'0 0.0
2018-Jul-15 01:59N 37°56' E 023°39'0 0.0
2018-Jul-15 01:29N 37°56' E 023°39'0 0.0
2018-Jul-15 00:59N 37°56' E 023°39'0 0.0
2018-Jul-15 00:30N 37°56' E 023°39'0 0.0
2018-Jul-15 00:00N 37°56' E 023°39'0 0.0
2018-Jul-14 23:30N 37°56' E 023°39'0 0.0
2018-Jul-14 23:00N 37°56' E 023°39'0 0.0
2018-Jul-14 22:30N 37°56' E 023°39'0 0.0
2018-Jul-14 22:00N 37°56' E 023°39'0 0.0
2018-Jul-14 21:30N 37°56' E 023°39'0 0.0
2018-Jul-14 21:00N 37°56' E 023°39'0 0.0
2018-Jul-14 20:30N 37°56' E 023°39'0 0.0
2018-Jul-14 20:00N 37°56' E 023°39'0 0.0
2018-Jul-14 19:30N 37°56' E 023°39'0 0.0
2018-Jul-14 19:00N 37°56' E 023°39'0 0.0
2018-Jul-14 18:30N 37°56' E 023°39'0 0.0
2018-Jul-14 18:00N 37°56' E 023°39'0 0.0
2018-Jul-14 17:30N 37°56' E 023°39'0 0.0
2018-Jul-14 17:00N 37°56' E 023°39'0 0.0
2018-Jul-14 16:30N 37°56' E 023°39'0 0.0
2018-Jul-14 16:00N 37°56' E 023°39'0 0.0
2018-Jul-14 15:30N 37°56' E 023°39'0 0.0
2018-Jul-14 15:00N 37°56' E 023°39'0 0.0
2018-Jul-14 14:30N 37°56' E 023°39'0 0.0
2018-Jul-14 13:30N 37°56' E 023°39'0 0.0
2018-Jul-14 13:00N 37°56' E 023°39'0 0.0
2018-Jul-14 12:30N 37°56' E 023°39'0 0.0
2018-Jul-14 12:00N 37°56' E 023°39'0 0.0
2018-Jul-14 11:30N 37°56' E 023°39'0 0.0
2018-Jul-14 11:00N 37°56' E 023°39'0 0.0
2018-Jul-14 10:30N 37°56' E 023°39'0 0.0
2018-Jul-14 10:00N 37°56' E 023°39'0 0.0
2018-Jul-14 09:30N 37°56' E 023°39'0 0.0
2018-Jul-14 09:00N 37°56' E 023°39'2 3.6
2018-Jul-14 08:31N 37°54' E 023°39'1122.2
2018-Jul-14 08:01N 37°44' E 023°34'1421.7
2018-Jul-14 07:21N 37°32' E 023°25'2 0.1
2018-Jul-13 14:52N 37°30' E 023°27'1 0.2
2018-Jul-13 08:49N 37°30' E 023°29'  
2018-Jul-10 07:42N 36°59' E 025°17'421.8
2018-Jul-10 07:31N 37°03' E 025°18'611.1
2018-Jul-10 07:00N 37°08' E 025°14'1 1.2
2018-Jul-10 06:29N 37°09' E 025°14'0 0.0
2018-Jul-10 05:53N 37°09' E 025°14'0 0.0
2018-Jul-10 05:20N 37°09' E 025°14'0 0.0
2018-Jul-10 04:56N 37°09' E 025°14'0 0.0
2018-Jul-10 04:29N 37°09' E 025°14'0 0.0
2018-Jul-10 03:56N 37°09' E 025°14'0 0.0
2018-Jul-10 03:29N 37°09' E 025°14'0 0.0
2018-Jul-10 02:59N 37°09' E 025°14'0 0.0
2018-Jul-10 02:29N 37°09' E 025°14'0 0.0
2018-Jul-10 01:56N 37°09' E 025°14'0 0.0
2018-Jul-10 01:14N 37°09' E 025°14'0 0.0
2018-Jul-10 00:56N 37°09' E 025°14'0 0.0
2018-Jul-10 00:26N 37°09' E 025°14'0 0.0
2018-Jul-09 23:59N 37°09' E 025°14'0 0.0
2018-Jul-09 23:26N 37°09' E 025°14'0 0.0
2018-Jul-09 22:50N 37°09' E 025°14'0 0.0
2018-Jul-09 22:20N 37°09' E 025°14'0 0.0
2018-Jul-09 21:50N 37°09' E 025°14'0 0.0
2018-Jul-09 21:23N 37°09' E 025°14'0 0.0
2018-Jul-09 20:11N 37°09' E 025°14'0 0.0
2018-Jul-09 19:59N 37°09' E 025°14'0 0.0
2018-Jul-09 19:23N 37°09' E 025°14'0 0.0
2018-Jul-09 18:56N 37°09' E 025°14'0 0.0
2018-Jul-09 18:14N 37°09' E 025°14'0 0.0
2018-Jul-09 17:53N 37°09' E 025°14'0 0.0
2018-Jul-09 17:26N 37°09' E 025°14'0 0.0
2018-Jul-09 16:47N 37°09' E 025°14'0 0.0
2018-Jul-09 16:23N 37°09' E 025°14'0 0.0
2018-Jul-09 15:53N 37°09' E 025°14'0 0.0
2018-Jul-09 15:26N 37°09' E 025°14'0 0.0
2018-Jul-09 14:59N 37°09' E 025°14'0 0.0
2018-Jul-09 14:29N 37°09' E 025°14'0 0.0
2018-Jul-09 13:59N 37°09' E 025°14'0 0.0
2018-Jul-09 13:29N 37°09' E 025°14'0 0.0
2018-Jul-09 12:59N 37°09' E 025°14'0 0.0
2018-Jul-09 12:23N 37°09' E 025°14'0 0.0
2018-Jul-09 11:59N 37°09' E 025°14'0 0.0
2018-Jul-09 11:29N 37°09' E 025°14'0 0.0
2018-Jul-09 10:38N 37°09' E 025°14'0 0.0
2018-Jul-09 10:29N 37°09' E 025°14'0 0.0
2018-Jul-09 09:59N 37°09' E 025°14'0 0.0
2018-Jul-09 08:59N 37°09' E 025°14'0 0.0
2018-Jul-09 08:20N 37°09' E 025°14'0 0.0
2018-Jul-09 07:53N 37°09' E 025°14'0 0.0
2018-Jul-09 07:30N 37°09' E 025°14'0 0.1
2018-Jul-09 07:00N 37°09' E 025°14'1 1.3
2018-Jul-09 06:30N 37°08' E 025°14'1020.9
2018-Jul-09 06:01N 37°18' E 025°16'917.7
2018-Jul-09 05:30N 37°27' E 025°19'0 0.6
2018-Jul-09 04:57N 37°27' E 025°20'0 0.0
2018-Jul-09 04:27N 37°27' E 025°20'0 0.0
2018-Jul-09 03:57N 37°27' E 025°20'0 0.0
2018-Jul-09 03:24N 37°27' E 025°20'0 0.0
2018-Jul-09 02:54N 37°27' E 025°20'0 0.0
2018-Jul-09 02:27N 37°27' E 025°20'0 0.0
2018-Jul-09 01:51N 37°27' E 025°20'0 0.0
2018-Jul-09 01:30N 37°27' E 025°20'0 0.0
2018-Jul-09 01:00N 37°27' E 025°20'0 0.0
2018-Jul-09 00:27N 37°27' E 025°20'0 0.0
2018-Jul-08 23:57N 37°27' E 025°20'0 0.0
2018-Jul-08 23:30N 37°27' E 025°20'0 0.0
2018-Jul-08 23:00N 37°27' E 025°20'0 0.0
2018-Jul-08 22:30N 37°27' E 025°20'0 0.0
2018-Jul-08 21:51N 37°27' E 025°20'0 0.0
2018-Jul-08 21:27N 37°27' E 025°20'0 0.0
2018-Jul-08 20:54N 37°27' E 025°20'0 0.0
2018-Jul-08 20:27N 37°27' E 025°20'0 0.0
2018-Jul-08 18:45N 37°27' E 025°20'0 0.0
2018-Jul-08 18:21N 37°27' E 025°20'0 0.0
2018-Jul-08 17:51N 37°27' E 025°20'0 0.0
2018-Jul-08 17:21N 37°27' E 025°20'0 0.0
2018-Jul-08 16:51N 37°27' E 025°20'0 0.0
2018-Jul-08 16:30N 37°27' E 025°20'0 0.6
2018-Jul-08 15:59N 37°27' E 025°19'0 0.3
2018-Jul-08 15:30N 37°27' E 025°19'612.2
2018-Jul-08 15:00N 37°22' E 025°16'2 3.3
2018-Jul-08 14:26N 37°23' E 025°14'0 0.0
2018-Jul-08 13:59N 37°23' E 025°14'0 0.0
2018-Jul-08 13:29N 37°23' E 025°14'0 0.0
2018-Jul-08 12:59N 37°23' E 025°14'0 0.0
2018-Jul-08 12:26N 37°23' E 025°14'0 0.0
2018-Jul-08 11:56N 37°23' E 025°14'0 0.0
2018-Jul-08 11:26N 37°23' E 025°14'0 0.0
2018-Jul-08 10:50N 37°23' E 025°14'0 0.0
2018-Jul-08 10:29N 37°23' E 025°14'0 0.0
2018-Jul-08 10:00N 37°23' E 025°14'5 9.3
2018-Jul-08 09:30N 37°21' E 025°09'1121.1
2018-Jul-08 09:00N 37°21' E 024°56'  

Dump ship's entire track history